sensor_id;sensor_type;location;lat;lon;timestamp;P1;durP1;ratioP1;P2;durP2;ratioP2
63217;SDS011;49314;48.278;16.378;2022-10-16T00:00:58;22.08;;;19.77;;
63217;SDS011;49314;48.278;16.378;2022-10-16T00:03:28;25.10;;;21.05;;
63217;SDS011;49314;48.278;16.378;2022-10-16T00:05:54;22.90;;;20.50;;
63217;SDS011;49314;48.278;16.378;2022-10-16T00:08:23;22.88;;;19.90;;
63217;SDS011;49314;48.278;16.378;2022-10-16T00:10:48;21.45;;;18.70;;
63217;SDS011;49314;48.278;16.378;2022-10-16T00:13:13;22.47;;;18.90;;
63217;SDS011;49314;48.278;16.378;2022-10-16T00:15:39;21.37;;;19.17;;
63217;SDS011;49314;48.278;16.378;2022-10-16T00:18:04;23.35;;;19.40;;
63217;SDS011;49314;48.278;16.378;2022-10-16T00:20:30;19.90;;;18.08;;
63217;SDS011;49314;48.278;16.378;2022-10-16T00:22:58;20.17;;;18.23;;
63217;SDS011;49314;48.278;16.378;2022-10-16T00:25:23;20.92;;;18.80;;
63217;SDS011;49314;48.278;16.378;2022-10-16T00:27:49;21.47;;;19.50;;
63217;SDS011;49314;48.278;16.378;2022-10-16T00:30:14;21.27;;;19.17;;
63217;SDS011;49314;48.278;16.378;2022-10-16T00:32:39;19.00;;;17.20;;
63217;SDS011;49314;48.278;16.378;2022-10-16T00:35:04;20.73;;;18.77;;
63217;SDS011;49314;48.278;16.378;2022-10-16T00:37:30;21.00;;;19.05;;
63217;SDS011;49314;48.278;16.378;2022-10-16T00:39:55;21.20;;;19.20;;
63217;SDS011;49314;48.278;16.378;2022-10-16T00:42:20;19.10;;;17.40;;
63217;SDS011;49314;48.278;16.378;2022-10-16T00:44:51;20.60;;;18.80;;
63217;SDS011;49314;48.278;16.378;2022-10-16T00:47:26;20.15;;;18.25;;
63217;SDS011;49314;48.278;16.378;2022-10-16T00:49:55;20.60;;;18.48;;
63217;SDS011;49314;48.278;16.378;2022-10-16T00:52:22;20.45;;;18.42;;
63217;SDS011;49314;48.278;16.378;2022-10-16T00:54:48;19.30;;;17.38;;
63217;SDS011;49314;48.278;16.378;2022-10-16T00:57:14;19.65;;;17.85;;
63217;SDS011;49314;48.278;16.378;2022-10-16T00:59:40;19.95;;;18.13;;
63217;SDS011;49314;48.278;16.378;2022-10-16T01:02:07;18.80;;;17.15;;
63217;SDS011;49314;48.278;16.378;2022-10-16T01:04:53;19.42;;;17.65;;
63217;SDS011;49314;48.278;16.378;2022-10-16T01:07:30;19.98;;;18.10;;
63217;SDS011;49314;48.278;16.378;2022-10-16T01:10:07;16.50;;;14.88;;
63217;SDS011;49314;48.278;16.378;2022-10-16T01:15:09;19.40;;;17.40;;
63217;SDS011;49314;48.278;16.378;2022-10-16T01:17:38;20.15;;;18.33;;
63217;SDS011;49314;48.278;16.378;2022-10-16T01:22:43;18.48;;;16.73;;
63217;SDS011;49314;48.278;16.378;2022-10-16T01:25:14;19.10;;;17.30;;
63217;SDS011;49314;48.278;16.378;2022-10-16T01:27:41;18.45;;;16.88;;
63217;SDS011;49314;48.278;16.378;2022-10-16T01:30:15;19.05;;;17.08;;
63217;SDS011;49314;48.278;16.378;2022-10-16T01:35:43;19.30;;;17.60;;
63217;SDS011;49314;48.278;16.378;2022-10-16T01:38:12;19.08;;;17.48;;
63217;SDS011;49314;48.278;16.378;2022-10-16T01:40:41;17.85;;;16.42;;
63217;SDS011;49314;48.278;16.378;2022-10-16T01:43:11;17.40;;;15.88;;
63217;SDS011;49314;48.278;16.378;2022-10-16T01:45:37;17.65;;;16.10;;
63217;SDS011;49314;48.278;16.378;2022-10-16T01:48:03;17.83;;;16.33;;
63217;SDS011;49314;48.278;16.378;2022-10-16T01:50:31;18.48;;;16.98;;
63217;SDS011;49314;48.278;16.378;2022-10-16T01:52:57;19.77;;;17.95;;
63217;SDS011;49314;48.278;16.378;2022-10-16T01:55:28;18.30;;;16.85;;
63217;SDS011;49314;48.278;16.378;2022-10-16T01:57:54;20.13;;;18.15;;
63217;SDS011;49314;48.278;16.378;2022-10-16T02:00:20;19.27;;;17.58;;
63217;SDS011;49314;48.278;16.378;2022-10-16T02:02:47;17.50;;;16.13;;
63217;SDS011;49314;48.278;16.378;2022-10-16T02:05:25;18.20;;;16.60;;
63217;SDS011;49314;48.278;16.378;2022-10-16T02:07:51;18.33;;;16.85;;
63217;SDS011;49314;48.278;16.378;2022-10-16T02:10:17;17.60;;;16.15;;
63217;SDS011;49314;48.278;16.378;2022-10-16T02:12:44;18.80;;;17.10;;
63217;SDS011;49314;48.278;16.378;2022-10-16T02:15:10;19.33;;;17.67;;
63217;SDS011;49314;48.278;16.378;2022-10-16T02:17:36;18.97;;;17.40;;
63217;SDS011;49314;48.278;16.378;2022-10-16T02:20:01;17.70;;;16.17;;
63217;SDS011;49314;48.278;16.378;2022-10-16T02:25:15;18.27;;;16.77;;
63217;SDS011;49314;48.278;16.378;2022-10-16T02:27:42;19.15;;;17.55;;
63217;SDS011;49314;48.278;16.378;2022-10-16T02:30:15;16.75;;;15.50;;
63217;SDS011;49314;48.278;16.378;2022-10-16T02:32:42;17.65;;;16.17;;
63217;SDS011;49314;48.278;16.378;2022-10-16T02:35:08;18.00;;;16.60;;
63217;SDS011;49314;48.278;16.378;2022-10-16T02:37:34;17.63;;;16.02;;
63217;SDS011;49314;48.278;16.378;2022-10-16T02:39:59;17.55;;;16.15;;
63217;SDS011;49314;48.278;16.378;2022-10-16T02:42:28;16.95;;;15.55;;
63217;SDS011;49314;48.278;16.378;2022-10-16T02:44:54;17.45;;;16.05;;
63217;SDS011;49314;48.278;16.378;2022-10-16T02:47:19;18.33;;;16.63;;
63217;SDS011;49314;48.278;16.378;2022-10-16T02:49:45;18.30;;;16.67;;
63217;SDS011;49314;48.278;16.378;2022-10-16T02:52:10;18.33;;;16.83;;
63217;SDS011;49314;48.278;16.378;2022-10-16T02:54:35;17.97;;;16.37;;
63217;SDS011;49314;48.278;16.378;2022-10-16T02:57:00;18.53;;;17.20;;
63217;SDS011;49314;48.278;16.378;2022-10-16T02:59:25;17.50;;;16.10;;
63217;SDS011;49314;48.278;16.378;2022-10-16T03:01:50;18.60;;;16.93;;
63217;SDS011;49314;48.278;16.378;2022-10-16T03:04:16;18.20;;;16.80;;
63217;SDS011;49314;48.278;16.378;2022-10-16T03:06:41;18.50;;;17.00;;
63217;SDS011;49314;48.278;16.378;2022-10-16T03:09:06;17.83;;;16.40;;
63217;SDS011;49314;48.278;16.378;2022-10-16T03:11:31;17.33;;;15.93;;
63217;SDS011;49314;48.278;16.378;2022-10-16T03:13:57;19.00;;;17.40;;
63217;SDS011;49314;48.278;16.378;2022-10-16T03:16:22;17.37;;;16.07;;
63217;SDS011;49314;48.278;16.378;2022-10-16T03:18:48;17.23;;;15.93;;
63217;SDS011;49314;48.278;16.378;2022-10-16T03:21:13;17.80;;;16.30;;
63217;SDS011;49314;48.278;16.378;2022-10-16T03:23:38;16.77;;;15.27;;
63217;SDS011;49314;48.278;16.378;2022-10-16T03:26:03;16.93;;;15.37;;
63217;SDS011;49314;48.278;16.378;2022-10-16T03:28:29;17.40;;;16.10;;
63217;SDS011;49314;48.278;16.378;2022-10-16T03:30:54;17.20;;;15.80;;
63217;SDS011;49314;48.278;16.378;2022-10-16T03:33:19;17.33;;;15.83;;
63217;SDS011;49314;48.278;16.378;2022-10-16T03:35:50;17.53;;;16.13;;
63217;SDS011;49314;48.278;16.378;2022-10-16T03:38:15;16.40;;;15.18;;
63217;SDS011;49314;48.278;16.378;2022-10-16T03:40:40;15.80;;;14.40;;
63217;SDS011;49314;48.278;16.378;2022-10-16T03:43:06;16.90;;;15.60;;
63217;SDS011;49314;48.278;16.378;2022-10-16T03:45:31;16.47;;;15.27;;
63217;SDS011;49314;48.278;16.378;2022-10-16T03:47:56;16.07;;;14.83;;
63217;SDS011;49314;48.278;16.378;2022-10-16T03:50:21;17.73;;;16.43;;
63217;SDS011;49314;48.278;16.378;2022-10-16T03:52:47;15.60;;;14.50;;
63217;SDS011;49314;48.278;16.378;2022-10-16T03:55:12;17.38;;;15.95;;
63217;SDS011;49314;48.278;16.378;2022-10-16T03:57:37;17.97;;;16.67;;
63217;SDS011;49314;48.278;16.378;2022-10-16T04:00:03;16.65;;;15.43;;
63217;SDS011;49314;48.278;16.378;2022-10-16T04:02:28;17.45;;;16.10;;
63217;SDS011;49314;48.278;16.378;2022-10-16T04:04:53;16.90;;;15.70;;
63217;SDS011;49314;48.278;16.378;2022-10-16T04:07:18;16.87;;;15.67;;
63217;SDS011;49314;48.278;16.378;2022-10-16T04:09:43;17.37;;;15.77;;
63217;SDS011;49314;48.278;16.378;2022-10-16T04:12:09;17.13;;;15.63;;
63217;SDS011;49314;48.278;16.378;2022-10-16T04:14:34;18.03;;;16.73;;
63217;SDS011;49314;48.278;16.378;2022-10-16T04:16:59;18.20;;;16.63;;
63217;SDS011;49314;48.278;16.378;2022-10-16T04:19:24;16.30;;;15.00;;
63217;SDS011;49314;48.278;16.378;2022-10-16T04:21:50;16.95;;;15.65;;
63217;SDS011;49314;48.278;16.378;2022-10-16T04:24:15;17.83;;;16.38;;
63217;SDS011;49314;48.278;16.378;2022-10-16T04:26:40;18.63;;;17.00;;
63217;SDS011;49314;48.278;16.378;2022-10-16T04:29:05;17.60;;;16.20;;
63217;SDS011;49314;48.278;16.378;2022-10-16T04:31:32;18.58;;;17.08;;
63217;SDS011;49314;48.278;16.378;2022-10-16T04:33:57;17.80;;;16.40;;
63217;SDS011;49314;48.278;16.378;2022-10-16T04:36:22;17.90;;;16.67;;
63217;SDS011;49314;48.278;16.378;2022-10-16T04:38:47;18.20;;;15.82;;
63217;SDS011;49314;48.278;16.378;2022-10-16T04:41:12;18.13;;;16.73;;
63217;SDS011;49314;48.278;16.378;2022-10-16T04:43:38;17.95;;;16.45;;
63217;SDS011;49314;48.278;16.378;2022-10-16T04:46:03;17.40;;;16.13;;
63217;SDS011;49314;48.278;16.378;2022-10-16T04:48:29;17.58;;;16.20;;
63217;SDS011;49314;48.278;16.378;2022-10-16T04:50:54;18.42;;;16.90;;
63217;SDS011;49314;48.278;16.378;2022-10-16T04:53:20;16.57;;;15.20;;
63217;SDS011;49314;48.278;16.378;2022-10-16T04:55:45;17.93;;;16.63;;
63217;SDS011;49314;48.278;16.378;2022-10-16T04:58:10;16.80;;;15.57;;
63217;SDS011;49314;48.278;16.378;2022-10-16T05:00:35;17.50;;;16.10;;
63217;SDS011;49314;48.278;16.378;2022-10-16T05:03:01;19.97;;;18.47;;
63217;SDS011;49314;48.278;16.378;2022-10-16T05:05:26;19.65;;;17.90;;
63217;SDS011;49314;48.278;16.378;2022-10-16T05:07:52;20.58;;;18.80;;
63217;SDS011;49314;48.278;16.378;2022-10-16T05:10:17;20.40;;;18.80;;
63217;SDS011;49314;48.278;16.378;2022-10-16T05:12:42;20.73;;;19.05;;
63217;SDS011;49314;48.278;16.378;2022-10-16T05:15:08;21.07;;;19.47;;
63217;SDS011;49314;48.278;16.378;2022-10-16T05:17:33;21.80;;;19.80;;
63217;SDS011;49314;48.278;16.378;2022-10-16T05:19:58;20.53;;;18.93;;
63217;SDS011;49314;48.278;16.378;2022-10-16T05:22:24;21.13;;;19.33;;
63217;SDS011;49314;48.278;16.378;2022-10-16T05:24:49;21.20;;;19.50;;
63217;SDS011;49314;48.278;16.378;2022-10-16T05:27:14;20.40;;;18.70;;
63217;SDS011;49314;48.278;16.378;2022-10-16T05:29:46;20.10;;;18.42;;
63217;SDS011;49314;48.278;16.378;2022-10-16T05:32:12;19.88;;;18.17;;
63217;SDS011;49314;48.278;16.378;2022-10-16T05:34:37;21.33;;;19.55;;
63217;SDS011;49314;48.278;16.378;2022-10-16T05:37:03;20.40;;;18.60;;
63217;SDS011;49314;48.278;16.378;2022-10-16T05:39:28;21.07;;;19.50;;
63217;SDS011;49314;48.278;16.378;2022-10-16T05:41:53;20.87;;;19.17;;
63217;SDS011;49314;48.278;16.378;2022-10-16T05:44:18;20.70;;;19.00;;
63217;SDS011;49314;48.278;16.378;2022-10-16T05:46:43;23.00;;;21.30;;
63217;SDS011;49314;48.278;16.378;2022-10-16T05:49:10;20.08;;;18.38;;
63217;SDS011;49314;48.278;16.378;2022-10-16T05:51:35;22.60;;;20.90;;
63217;SDS011;49314;48.278;16.378;2022-10-16T05:54:01;23.37;;;21.47;;
63217;SDS011;49314;48.278;16.378;2022-10-16T05:56:26;22.23;;;20.40;;
63217;SDS011;49314;48.278;16.378;2022-10-16T05:58:51;24.92;;;22.92;;
63217;SDS011;49314;48.278;16.378;2022-10-16T06:01:17;22.20;;;20.30;;
63217;SDS011;49314;48.278;16.378;2022-10-16T06:03:43;27.90;;;25.25;;
63217;SDS011;49314;48.278;16.378;2022-10-16T06:08:34;31.05;;;28.25;;
63217;SDS011;49314;48.278;16.378;2022-10-16T06:11:02;32.20;;;28.97;;
63217;SDS011;49314;48.278;16.378;2022-10-16T06:13:28;33.45;;;30.08;;
63217;SDS011;49314;48.278;16.378;2022-10-16T06:15:56;33.35;;;29.98;;
63217;SDS011;49314;48.278;16.378;2022-10-16T06:18:21;36.00;;;32.15;;
63217;SDS011;49314;48.278;16.378;2022-10-16T06:20:47;37.93;;;33.97;;
63217;SDS011;49314;48.278;16.378;2022-10-16T06:23:12;37.17;;;33.43;;
63217;SDS011;49314;48.278;16.378;2022-10-16T06:25:37;37.60;;;33.77;;
63217;SDS011;49314;48.278;16.378;2022-10-16T06:28:02;36.20;;;32.33;;
63217;SDS011;49314;48.278;16.378;2022-10-16T06:30:27;37.50;;;33.50;;
63217;SDS011;49314;48.278;16.378;2022-10-16T06:32:53;41.10;;;36.87;;
63217;SDS011;49314;48.278;16.378;2022-10-16T06:35:18;38.20;;;34.20;;
63217;SDS011;49314;48.278;16.378;2022-10-16T06:37:43;39.00;;;34.80;;
63217;SDS011;49314;48.278;16.378;2022-10-16T06:40:08;44.20;;;37.57;;
63217;SDS011;49314;48.278;16.378;2022-10-16T06:42:33;39.88;;;35.50;;
63217;SDS011;49314;48.278;16.378;2022-10-16T06:44:59;42.40;;;37.73;;
63217;SDS011;49314;48.278;16.378;2022-10-16T06:47:24;42.47;;;37.67;;
63217;SDS011;49314;48.278;16.378;2022-10-16T06:49:49;43.07;;;38.47;;
63217;SDS011;49314;48.278;16.378;2022-10-16T06:52:14;41.10;;;36.33;;
63217;SDS011;49314;48.278;16.378;2022-10-16T06:54:39;43.60;;;38.03;;
63217;SDS011;49314;48.278;16.378;2022-10-16T06:57:05;42.40;;;37.90;;
63217;SDS011;49314;48.278;16.378;2022-10-16T06:59:30;42.65;;;38.20;;
63217;SDS011;49314;48.278;16.378;2022-10-16T07:01:55;43.23;;;38.67;;
63217;SDS011;49314;48.278;16.378;2022-10-16T07:04:20;42.57;;;38.07;;
63217;SDS011;49314;48.278;16.378;2022-10-16T07:06:46;43.67;;;38.70;;
63217;SDS011;49314;48.278;16.378;2022-10-16T07:09:11;44.20;;;38.90;;
63217;SDS011;49314;48.278;16.378;2022-10-16T07:11:37;43.33;;;38.65;;
63217;SDS011;49314;48.278;16.378;2022-10-16T07:14:03;46.33;;;41.33;;
63217;SDS011;49314;48.278;16.378;2022-10-16T07:16:30;44.88;;;40.35;;
63217;SDS011;49314;48.278;16.378;2022-10-16T07:18:56;45.60;;;40.42;;
63217;SDS011;49314;48.278;16.378;2022-10-16T07:21:23;46.63;;;41.45;;
63217;SDS011;49314;48.278;16.378;2022-10-16T07:23:53;46.95;;;40.88;;
63217;SDS011;49314;48.278;16.378;2022-10-16T07:26:19;45.58;;;40.58;;
63217;SDS011;49314;48.278;16.378;2022-10-16T07:28:44;43.33;;;38.70;;
63217;SDS011;49314;48.278;16.378;2022-10-16T07:31:10;44.03;;;38.40;;
63217;SDS011;49314;48.278;16.378;2022-10-16T07:33:36;44.45;;;39.67;;
63217;SDS011;49314;48.278;16.378;2022-10-16T07:36:02;45.67;;;40.72;;
63217;SDS011;49314;48.278;16.378;2022-10-16T07:38:27;45.17;;;40.45;;
63217;SDS011;49314;48.278;16.378;2022-10-16T07:40:59;43.28;;;38.85;;
63217;SDS011;49314;48.278;16.378;2022-10-16T07:43:25;44.95;;;38.88;;
63217;SDS011;49314;48.278;16.378;2022-10-16T07:45:50;45.35;;;40.60;;
63217;SDS011;49314;48.278;16.378;2022-10-16T07:48:16;46.55;;;41.70;;
63217;SDS011;49314;48.278;16.378;2022-10-16T07:50:41;44.83;;;40.20;;
63217;SDS011;49314;48.278;16.378;2022-10-16T07:53:07;47.33;;;42.03;;
63217;SDS011;49314;48.278;16.378;2022-10-16T07:55:32;48.42;;;42.97;;
63217;SDS011;49314;48.278;16.378;2022-10-16T07:57:57;50.73;;;44.30;;
63217;SDS011;49314;48.278;16.378;2022-10-16T08:00:22;49.20;;;43.40;;
63217;SDS011;49314;48.278;16.378;2022-10-16T08:02:47;51.27;;;45.10;;
63217;SDS011;49314;48.278;16.378;2022-10-16T08:05:13;46.20;;;41.10;;
63217;SDS011;49314;48.278;16.378;2022-10-16T08:07:38;50.00;;;44.90;;
63217;SDS011;49314;48.278;16.378;2022-10-16T08:10:03;49.87;;;44.50;;
63217;SDS011;49314;48.278;16.378;2022-10-16T08:12:28;48.30;;;43.17;;
63217;SDS011;49314;48.278;16.378;2022-10-16T08:14:54;46.60;;;41.70;;
63217;SDS011;49314;48.278;16.378;2022-10-16T08:17:19;47.50;;;42.67;;
63217;SDS011;49314;48.278;16.378;2022-10-16T08:19:47;45.30;;;40.60;;
63217;SDS011;49314;48.278;16.378;2022-10-16T08:22:13;46.38;;;41.40;;
63217;SDS011;49314;48.278;16.378;2022-10-16T08:24:38;47.13;;;42.15;;
63217;SDS011;49314;48.278;16.378;2022-10-16T08:27:03;46.77;;;41.67;;
63217;SDS011;49314;48.278;16.378;2022-10-16T08:29:29;46.28;;;41.47;;
63217;SDS011;49314;48.278;16.378;2022-10-16T08:31:54;47.63;;;42.45;;
63217;SDS011;49314;48.278;16.378;2022-10-16T08:34:19;50.83;;;45.17;;
63217;SDS011;49314;48.278;16.378;2022-10-16T08:36:44;48.60;;;43.23;;
63217;SDS011;49314;48.278;16.378;2022-10-16T08:39:10;49.00;;;43.90;;
63217;SDS011;49314;48.278;16.378;2022-10-16T08:49:05;45.23;;;40.63;;
63217;SDS011;49314;48.278;16.378;2022-10-16T08:51:34;46.63;;;41.78;;
63217;SDS011;49314;48.278;16.378;2022-10-16T08:54:12;46.20;;;41.40;;
63217;SDS011;49314;48.278;16.378;2022-10-16T08:56:40;45.30;;;40.83;;
63217;SDS011;49314;48.278;16.378;2022-10-16T08:59:06;43.97;;;39.67;;
63217;SDS011;49314;48.278;16.378;2022-10-16T09:01:41;44.65;;;40.05;;
63217;SDS011;49314;48.278;16.378;2022-10-16T09:06:56;46.13;;;41.58;;
63217;SDS011;49314;48.278;16.378;2022-10-16T09:21:16;46.00;;;41.38;;
63217;SDS011;49314;48.278;16.378;2022-10-16T09:23:43;44.45;;;40.17;;
63217;SDS011;49314;48.278;16.378;2022-10-16T09:26:12;45.17;;;41.03;;
63217;SDS011;49314;48.278;16.378;2022-10-16T09:28:38;44.97;;;40.83;;
63217;SDS011;49314;48.278;16.378;2022-10-16T09:31:04;42.35;;;38.50;;
63217;SDS011;49314;48.278;16.378;2022-10-16T09:33:30;45.15;;;40.78;;
63217;SDS011;49314;48.278;16.378;2022-10-16T09:35:58;43.58;;;39.58;;
63217;SDS011;49314;48.278;16.378;2022-10-16T09:38:42;42.58;;;38.63;;
63217;SDS011;49314;48.278;16.378;2022-10-16T09:41:20;42.30;;;38.40;;
63217;SDS011;49314;48.278;16.378;2022-10-16T09:48:54;42.97;;;38.83;;
63217;SDS011;49314;48.278;16.378;2022-10-16T09:51:41;46.63;;;42.25;;
63217;SDS011;49314;48.278;16.378;2022-10-16T09:56:34;49.63;;;44.88;;
63217;SDS011;49314;48.278;16.378;2022-10-16T09:59:14;47.13;;;42.75;;
63217;SDS011;49314;48.278;16.378;2022-10-16T10:01:46;49.63;;;44.78;;
63217;SDS011;49314;48.278;16.378;2022-10-16T10:06:41;48.08;;;43.58;;
63217;SDS011;49314;48.278;16.378;2022-10-16T10:09:26;50.13;;;45.22;;
63217;SDS011;49314;48.278;16.378;2022-10-16T10:12:01;49.03;;;44.42;;
63217;SDS011;49314;48.278;16.378;2022-10-16T10:17:01;53.38;;;48.33;;
63217;SDS011;49314;48.278;16.378;2022-10-16T10:23:54;48.60;;;44.00;;
63217;SDS011;49314;48.278;16.378;2022-10-16T10:26:20;46.33;;;42.15;;
63217;SDS011;49314;48.278;16.378;2022-10-16T10:33:57;45.00;;;41.00;;
63217;SDS011;49314;48.278;16.378;2022-10-16T10:38:50;44.07;;;40.13;;
63217;SDS011;49314;48.278;16.378;2022-10-16T10:43:52;40.65;;;36.85;;
63217;SDS011;49314;48.278;16.378;2022-10-16T10:46:23;42.13;;;38.42;;
63217;SDS011;49314;48.278;16.378;2022-10-16T10:48:54;42.58;;;38.60;;
63217;SDS011;49314;48.278;16.378;2022-10-16T10:51:28;39.13;;;35.53;;
63217;SDS011;49314;48.278;16.378;2022-10-16T10:59:15;40.47;;;36.88;;
63217;SDS011;49314;48.278;16.378;2022-10-16T11:01:50;42.65;;;38.67;;
63217;SDS011;49314;48.278;16.378;2022-10-16T11:07:19;41.22;;;37.40;;
63217;SDS011;49314;48.278;16.378;2022-10-16T11:09:51;39.95;;;36.50;;
63217;SDS011;49314;48.278;16.378;2022-10-16T11:12:21;39.05;;;35.30;;
63217;SDS011;49314;48.278;16.378;2022-10-16T11:17:18;40.00;;;36.47;;
63217;SDS011;49314;48.278;16.378;2022-10-16T11:19:46;41.55;;;37.85;;
63217;SDS011;49314;48.278;16.378;2022-10-16T11:22:22;43.05;;;39.05;;
63217;SDS011;49314;48.278;16.378;2022-10-16T11:27:38;41.78;;;38.10;;
63217;SDS011;49314;48.278;16.378;2022-10-16T11:30:05;41.22;;;37.40;;
63217;SDS011;49314;48.278;16.378;2022-10-16T11:38:26;41.13;;;37.53;;
63217;SDS011;49314;48.278;16.378;2022-10-16T11:40:53;36.85;;;33.63;;
63217;SDS011;49314;48.278;16.378;2022-10-16T11:43:31;37.78;;;34.45;;
63217;SDS011;49314;48.278;16.378;2022-10-16T11:45:58;37.35;;;34.05;;
63217;SDS011;49314;48.278;16.378;2022-10-16T11:53:53;36.07;;;32.87;;
63217;SDS011;49314;48.278;16.378;2022-10-16T11:56:22;36.13;;;33.03;;
63217;SDS011;49314;48.278;16.378;2022-10-16T12:01:17;35.13;;;31.77;;
63217;SDS011;49314;48.278;16.378;2022-10-16T12:04:02;34.80;;;31.70;;
63217;SDS011;49314;48.278;16.378;2022-10-16T12:07:32;32.60;;;29.90;;
63217;SDS011;49314;48.278;16.378;2022-10-16T12:09:26;34.58;;;31.45;;
63217;SDS011;49314;48.278;16.378;2022-10-16T12:11:52;33.65;;;29.85;;
63217;SDS011;49314;48.278;16.378;2022-10-16T12:14:18;32.42;;;29.42;;
63217;SDS011;49314;48.278;16.378;2022-10-16T12:19:45;32.60;;;29.67;;
63217;SDS011;49314;48.278;16.378;2022-10-16T12:22:21;32.58;;;29.63;;
63217;SDS011;49314;48.278;16.378;2022-10-16T12:24:50;32.80;;;29.65;;
63217;SDS011;49314;48.278;16.378;2022-10-16T12:27:29;30.15;;;27.63;;
63217;SDS011;49314;48.278;16.378;2022-10-16T12:29:58;30.80;;;28.20;;
63217;SDS011;49314;48.278;16.378;2022-10-16T12:32:37;29.50;;;26.90;;
63217;SDS011;49314;48.278;16.378;2022-10-16T12:35:04;30.67;;;28.13;;
63217;SDS011;49314;48.278;16.378;2022-10-16T12:37:31;31.25;;;28.58;;
63217;SDS011;49314;48.278;16.378;2022-10-16T12:39:57;29.13;;;26.63;;
63217;SDS011;49314;48.278;16.378;2022-10-16T12:44:51;30.35;;;27.65;;
63217;SDS011;49314;48.278;16.378;2022-10-16T12:47:23;29.88;;;27.25;;
63217;SDS011;49314;48.278;16.378;2022-10-16T12:49:50;29.15;;;26.50;;
63217;SDS011;49314;48.278;16.378;2022-10-16T12:54:55;28.90;;;26.25;;
63217;SDS011;49314;48.278;16.378;2022-10-16T13:02:44;28.73;;;26.10;;
63217;SDS011;49314;48.278;16.378;2022-10-16T13:25:25;27.65;;;25.30;;
63217;SDS011;49314;48.278;16.378;2022-10-16T13:27:59;29.35;;;26.75;;
63217;SDS011;49314;48.278;16.378;2022-10-16T13:30:25;28.55;;;26.20;;
63217;SDS011;49314;48.278;16.378;2022-10-16T13:32:53;26.92;;;24.65;;
63217;SDS011;49314;48.278;16.378;2022-10-16T13:35:23;27.77;;;25.38;;
63217;SDS011;49314;48.278;16.378;2022-10-16T13:37:48;27.20;;;24.80;;
63217;SDS011;49314;48.278;16.378;2022-10-16T13:40:21;27.65;;;25.25;;
63217;SDS011;49314;48.278;16.378;2022-10-16T13:45:21;28.07;;;25.43;;
63217;SDS011;49314;48.278;16.378;2022-10-16T13:47:47;26.40;;;24.15;;
63217;SDS011;49314;48.278;16.378;2022-10-16T13:50:14;27.53;;;25.10;;
63217;SDS011;49314;48.278;16.378;2022-10-16T13:52:39;25.30;;;23.15;;
63217;SDS011;49314;48.278;16.378;2022-10-16T13:55:10;28.87;;;26.27;;
63217;SDS011;49314;48.278;16.378;2022-10-16T13:57:35;26.48;;;24.27;;
63217;SDS011;49314;48.278;16.378;2022-10-16T14:00:01;26.58;;;24.17;;
63217;SDS011;49314;48.278;16.378;2022-10-16T14:02:27;27.90;;;25.40;;
63217;SDS011;49314;48.278;16.378;2022-10-16T14:04:54;28.33;;;25.55;;
63217;SDS011;49314;48.278;16.378;2022-10-16T14:07:24;27.20;;;24.90;;
63217;SDS011;49314;48.278;16.378;2022-10-16T14:09:50;27.25;;;24.85;;
63217;SDS011;49314;48.278;16.378;2022-10-16T14:12:16;26.83;;;24.58;;
63217;SDS011;49314;48.278;16.378;2022-10-16T14:14:42;26.70;;;24.30;;
63217;SDS011;49314;48.278;16.378;2022-10-16T14:17:24;28.75;;;26.48;;
63217;SDS011;49314;48.278;16.378;2022-10-16T14:19:51;27.25;;;24.85;;
63217;SDS011;49314;48.278;16.378;2022-10-16T14:24:54;27.77;;;25.48;;
63217;SDS011;49314;48.278;16.378;2022-10-16T14:27:28;25.92;;;23.80;;
63217;SDS011;49314;48.278;16.378;2022-10-16T14:32:39;27.63;;;25.45;;
63217;SDS011;49314;48.278;16.378;2022-10-16T14:35:11;27.30;;;24.90;;
63217;SDS011;49314;48.278;16.378;2022-10-16T14:37:50;25.70;;;23.48;;
63217;SDS011;49314;48.278;16.378;2022-10-16T14:40:16;26.45;;;24.42;;
63217;SDS011;49314;48.278;16.378;2022-10-16T14:42:42;26.98;;;24.63;;
63217;SDS011;49314;48.278;16.378;2022-10-16T14:45:08;27.48;;;25.17;;
63217;SDS011;49314;48.278;16.378;2022-10-16T14:47:47;27.55;;;25.25;;
63217;SDS011;49314;48.278;16.378;2022-10-16T14:50:13;27.75;;;25.58;;
63217;SDS011;49314;48.278;16.378;2022-10-16T14:52:38;25.85;;;23.73;;
63217;SDS011;49314;48.278;16.378;2022-10-16T14:55:03;25.73;;;23.63;;
63217;SDS011;49314;48.278;16.378;2022-10-16T14:57:29;27.98;;;25.58;;
63217;SDS011;49314;48.278;16.378;2022-10-16T14:59:56;27.38;;;25.08;;
63217;SDS011;49314;48.278;16.378;2022-10-16T15:02:28;25.83;;;23.73;;
63217;SDS011;49314;48.278;16.378;2022-10-16T15:04:54;25.88;;;23.73;;
63217;SDS011;49314;48.278;16.378;2022-10-16T15:07:19;27.17;;;24.88;;
63217;SDS011;49314;48.278;16.378;2022-10-16T15:09:45;26.37;;;24.33;;
63217;SDS011;49314;48.278;16.378;2022-10-16T15:12:10;25.63;;;23.63;;
63217;SDS011;49314;48.278;16.378;2022-10-16T15:14:35;27.70;;;25.40;;
63217;SDS011;49314;48.278;16.378;2022-10-16T15:17:00;26.27;;;24.13;;
63217;SDS011;49314;48.278;16.378;2022-10-16T15:19:26;25.45;;;23.30;;
63217;SDS011;49314;48.278;16.378;2022-10-16T15:21:51;25.70;;;23.80;;
63217;SDS011;49314;48.278;16.378;2022-10-16T15:24:17;26.52;;;24.42;;
63217;SDS011;49314;48.278;16.378;2022-10-16T15:26:42;26.80;;;24.33;;
63217;SDS011;49314;48.278;16.378;2022-10-16T15:29:07;26.20;;;24.10;;
63217;SDS011;49314;48.278;16.378;2022-10-16T15:31:33;27.50;;;25.30;;
63217;SDS011;49314;48.278;16.378;2022-10-16T15:33:58;27.08;;;24.98;;
63217;SDS011;49314;48.278;16.378;2022-10-16T15:36:29;27.63;;;25.45;;
63217;SDS011;49314;48.278;16.378;2022-10-16T15:38:55;26.33;;;24.13;;
63217;SDS011;49314;48.278;16.378;2022-10-16T15:41:20;27.17;;;24.88;;
63217;SDS011;49314;48.278;16.378;2022-10-16T15:43:47;25.25;;;23.17;;
63217;SDS011;49314;48.278;16.378;2022-10-16T15:46:13;27.60;;;25.40;;
63217;SDS011;49314;48.278;16.378;2022-10-16T15:48:41;27.02;;;24.80;;
63217;SDS011;49314;48.278;16.378;2022-10-16T15:51:08;26.38;;;24.23;;
63217;SDS011;49314;48.278;16.378;2022-10-16T15:53:33;26.33;;;24.23;;
63217;SDS011;49314;48.278;16.378;2022-10-16T15:56:05;26.65;;;24.45;;
63217;SDS011;49314;48.278;16.378;2022-10-16T15:58:31;27.60;;;25.25;;
63217;SDS011;49314;48.278;16.378;2022-10-16T16:00:57;27.48;;;24.77;;
63217;SDS011;49314;48.278;16.378;2022-10-16T16:03:22;26.08;;;23.65;;
63217;SDS011;49314;48.278;16.378;2022-10-16T16:05:47;26.42;;;23.92;;
63217;SDS011;49314;48.278;16.378;2022-10-16T16:08:12;27.47;;;25.07;;
63217;SDS011;49314;48.278;16.378;2022-10-16T16:10:38;26.77;;;24.20;;
63217;SDS011;49314;48.278;16.378;2022-10-16T16:13:03;26.33;;;23.97;;
63217;SDS011;49314;48.278;16.378;2022-10-16T16:15:28;26.17;;;24.07;;
63217;SDS011;49314;48.278;16.378;2022-10-16T16:17:53;27.15;;;24.85;;
63217;SDS011;49314;48.278;16.378;2022-10-16T16:20:19;27.43;;;25.03;;